Two Rivers, AK (99716)

7:15 AM AKDT on August 27, 2016 (GMT -0800)
Lakloey Hill | | Change Station

Elev 630 ft 64.83 °N, 147.52 °W | Updated 1 minute ago

Overcast
Overcast
52.7 °F
Feels Like 52.7 °F
N
0.0
Wind Variable Wind from NNE

Today
High -- | Low -- °F
--% Chance of Precip.
Yesterday
High -- | Low -- °F
Precip. -- in
Pressure 30.24 in
Visibility 10.0 miles
Clouds Mostly Cloudy 5500 ft
Overcast 10000 ft
Dew Point 52 °F
Humidity 98%
Rainfall 0.00 in
Snow Depth Not available.
6:17 AM 9:23 PM
Waning Crescent, 24% visible
METAR PAFB 271458Z AUTO 00000KT 10SM BKN055 OVC100 12/11 A3023 RMK AO2 SLP240 T01150110 50004
Pressure 30.24 in
Visibility 10.0 miles
Clouds Mostly Cloudy 5500 ft
Overcast 10000 ft
Dew Point 52 °F
Humidity 98%
Rainfall 0.00 in
Snow Depth Not available.
6:17 AM 9:23 PM
Waning Crescent, 24% visible
METAR PAFB 271458Z AUTO 00000KT 10SM BKN055 OVC100 12/11 A3023 RMK AO2 SLP240 T01150110 50004

10-Day Weather Forecast

Almanac

Astronomy

Aug. 27, 2016 Rise Set
Actual Time
Civil Twilight
Nautical Twilight
Astronomical Twilight
Moon
Length of Visible Light
Length of Day
Tomorrow will be .
, % of the Moon is Illuminated

Today's Extremes

State Highs State Lows

Community

WunderPhotos

Upload Photos

1,935,354 photos uploaded!

WunderBlog® & News

Nearby

Air Quality

  Air Quality AQ Index Pollutant
Not available.

Snow Depth

Station Depth Elevation

Earthquake Activity

City Distance Mag. Time & Date
Minimum magnitude displayed is 2.5.

Coastal Water Temperatures

Place Temperature

Stations

Nearby Weather Stations

Station Location Temp. Windchill Dew Point Humidity Wind Precip. Elev Updated Type
                   

Watches & Warnings

There are currently no watches in effect.